X  Fechar Metar - Info de Aeroporto     EHAM Amsterdam Airport Schiphol
Temperatura
21°C Temperatura
12°C Ptº Orvalho
57% Humidade



Vento
11 KM/H
7 MPH
3 M/S
6 NÓS



200°
SSO
Condições Atuais

Pouco Nublado Pouco Nublado
Pressão 1011.85 (hPa) - 29.88 (inHg)
Visibilidade 6 (milha) - 9.7 (km)
Aeroporto
Código-Aeropoto EHAM

Localização: Amsterdam Airport Schiphol
Distância: 26 (km)

Metar:
EHAM 150855Z 20006KT 150V240 9999 FEW048 21/12 Q1012 NOSIG

Hora: 15-07-2024 10:55 CEST